sensor_id;sensor_type;location;lat;lon;timestamp;temperature;humidity
15698;DHT22;7949;48.726;9.102;2022-08-05T00:01:19;21.90;99.90
15698;DHT22;7949;48.726;9.102;2022-08-05T00:03:47;21.90;99.90
15698;DHT22;7949;48.726;9.102;2022-08-05T00:06:15;22.00;99.90
15698;DHT22;7949;48.726;9.102;2022-08-05T00:08:43;22.00;99.90
15698;DHT22;7949;48.726;9.102;2022-08-05T00:11:11;21.90;99.90
15698;DHT22;7949;48.726;9.102;2022-08-05T00:13:40;21.90;99.90
15698;DHT22;7949;48.726;9.102;2022-08-05T00:16:08;21.80;99.90
15698;DHT22;7949;48.726;9.102;2022-08-05T00:18:35;21.80;99.90
15698;DHT22;7949;48.726;9.102;2022-08-05T00:21:03;21.70;99.90
15698;DHT22;7949;48.726;9.102;2022-08-05T00:23:31;21.70;99.90
15698;DHT22;7949;48.726;9.102;2022-08-05T00:25:58;21.70;99.90
15698;DHT22;7949;48.726;9.102;2022-08-05T00:28:25;21.70;99.90
15698;DHT22;7949;48.726;9.102;2022-08-05T00:30:51;21.60;99.90
15698;DHT22;7949;48.726;9.102;2022-08-05T00:33:18;21.60;99.90
15698;DHT22;7949;48.726;9.102;2022-08-05T00:35:45;21.60;99.90
15698;DHT22;7949;48.726;9.102;2022-08-05T00:38:12;21.50;99.90
15698;DHT22;7949;48.726;9.102;2022-08-05T00:40:47;21.50;99.90
15698;DHT22;7949;48.726;9.102;2022-08-05T00:43:14;21.50;99.90
15698;DHT22;7949;48.726;9.102;2022-08-05T00:45:42;21.40;99.90
15698;DHT22;7949;48.726;9.102;2022-08-05T00:48:10;21.40;99.90
15698;DHT22;7949;48.726;9.102;2022-08-05T00:50:38;21.40;99.90
15698;DHT22;7949;48.726;9.102;2022-08-05T00:53:05;21.40;99.90
15698;DHT22;7949;48.726;9.102;2022-08-05T00:55:32;21.40;99.90
15698;DHT22;7949;48.726;9.102;2022-08-05T00:58:00;21.30;99.90
15698;DHT22;7949;48.726;9.102;2022-08-05T01:00:29;21.30;99.90
15698;DHT22;7949;48.726;9.102;2022-08-05T01:02:57;21.60;99.90
15698;DHT22;7949;48.726;9.102;2022-08-05T01:05:24;22.60;99.90
15698;DHT22;7949;48.726;9.102;2022-08-05T01:07:51;23.50;99.90
15698;DHT22;7949;48.726;9.102;2022-08-05T01:10:21;24.00;99.90
15698;DHT22;7949;48.726;9.102;2022-08-05T01:12:52;24.30;99.90
15698;DHT22;7949;48.726;9.102;2022-08-05T01:15:26;24.50;99.90
15698;DHT22;7949;48.726;9.102;2022-08-05T01:17:57;24.60;99.90
15698;DHT22;7949;48.726;9.102;2022-08-05T01:20:30;24.60;99.90
15698;DHT22;7949;48.726;9.102;2022-08-05T01:23:10;24.60;99.90
15698;DHT22;7949;48.726;9.102;2022-08-05T01:25:48;24.60;99.90
15698;DHT22;7949;48.726;9.102;2022-08-05T01:28:23;24.50;99.90
15698;DHT22;7949;48.726;9.102;2022-08-05T01:30:55;24.50;99.90
15698;DHT22;7949;48.726;9.102;2022-08-05T01:33:29;24.40;99.90
15698;DHT22;7949;48.726;9.102;2022-08-05T01:35:58;24.40;99.90
15698;DHT22;7949;48.726;9.102;2022-08-05T01:38:27;24.30;99.90
15698;DHT22;7949;48.726;9.102;2022-08-05T01:40:56;24.30;99.90
15698;DHT22;7949;48.726;9.102;2022-08-05T01:43:25;24.20;99.90
15698;DHT22;7949;48.726;9.102;2022-08-05T01:45:53;24.10;99.90
15698;DHT22;7949;48.726;9.102;2022-08-05T01:48:22;24.10;99.90
15698;DHT22;7949;48.726;9.102;2022-08-05T01:50:49;24.10;99.90
15698;DHT22;7949;48.726;9.102;2022-08-05T01:53:19;24.10;99.90
15698;DHT22;7949;48.726;9.102;2022-08-05T01:55:48;24.00;99.90
15698;DHT22;7949;48.726;9.102;2022-08-05T01:58:16;23.90;99.90
15698;DHT22;7949;48.726;9.102;2022-08-05T02:00:49;23.90;99.90
15698;DHT22;7949;48.726;9.102;2022-08-05T02:03:20;23.90;99.90
15698;DHT22;7949;48.726;9.102;2022-08-05T02:05:48;23.90;99.90
15698;DHT22;7949;48.726;9.102;2022-08-05T02:08:16;23.80;99.90
15698;DHT22;7949;48.726;9.102;2022-08-05T02:10:47;23.80;99.90
15698;DHT22;7949;48.726;9.102;2022-08-05T02:13:16;23.80;99.90
15698;DHT22;7949;48.726;9.102;2022-08-05T02:15:49;23.80;99.90
15698;DHT22;7949;48.726;9.102;2022-08-05T02:18:21;23.70;99.90
15698;DHT22;7949;48.726;9.102;2022-08-05T02:20:53;23.60;99.90
15698;DHT22;7949;48.726;9.102;2022-08-05T02:23:25;23.60;99.90
15698;DHT22;7949;48.726;9.102;2022-08-05T02:25:52;23.50;99.90
15698;DHT22;7949;48.726;9.102;2022-08-05T02:28:25;23.50;99.90
15698;DHT22;7949;48.726;9.102;2022-08-05T02:30:59;23.40;99.90
15698;DHT22;7949;48.726;9.102;2022-08-05T02:33:26;23.40;99.90
15698;DHT22;7949;48.726;9.102;2022-08-05T02:35:57;23.30;99.90
15698;DHT22;7949;48.726;9.102;2022-08-05T02:38:28;23.30;99.90
15698;DHT22;7949;48.726;9.102;2022-08-05T02:40:57;23.30;99.90
15698;DHT22;7949;48.726;9.102;2022-08-05T02:43:25;23.20;99.90
15698;DHT22;7949;48.726;9.102;2022-08-05T02:45:54;23.20;99.90
15698;DHT22;7949;48.726;9.102;2022-08-05T02:48:22;23.10;99.90
15698;DHT22;7949;48.726;9.102;2022-08-05T02:50:51;23.10;99.90
15698;DHT22;7949;48.726;9.102;2022-08-05T02:53:19;23.00;99.90
15698;DHT22;7949;48.726;9.102;2022-08-05T02:55:49;23.00;99.90
15698;DHT22;7949;48.726;9.102;2022-08-05T02:58:20;22.90;99.90
15698;DHT22;7949;48.726;9.102;2022-08-05T03:00:47;22.90;99.90
15698;DHT22;7949;48.726;9.102;2022-08-05T03:03:18;22.80;99.90
15698;DHT22;7949;48.726;9.102;2022-08-05T03:05:46;22.80;99.90
15698;DHT22;7949;48.726;9.102;2022-08-05T03:08:14;22.70;99.90
15698;DHT22;7949;48.726;9.102;2022-08-05T03:10:42;22.70;99.90
15698;DHT22;7949;48.726;9.102;2022-08-05T03:13:13;22.70;99.90
15698;DHT22;7949;48.726;9.102;2022-08-05T03:15:41;22.70;99.90
15698;DHT22;7949;48.726;9.102;2022-08-05T03:18:09;22.60;99.90
15698;DHT22;7949;48.726;9.102;2022-08-05T03:20:38;22.50;99.90
15698;DHT22;7949;48.726;9.102;2022-08-05T03:23:07;22.40;99.90
15698;DHT22;7949;48.726;9.102;2022-08-05T03:25:35;22.30;99.90
15698;DHT22;7949;48.726;9.102;2022-08-05T03:28:04;22.20;99.90
15698;DHT22;7949;48.726;9.102;2022-08-05T03:30:31;22.10;99.90
15698;DHT22;7949;48.726;9.102;2022-08-05T03:32:59;22.20;99.90
15698;DHT22;7949;48.726;9.102;2022-08-05T03:35:27;22.10;99.90
15698;DHT22;7949;48.726;9.102;2022-08-05T03:37:56;22.00;99.90
15698;DHT22;7949;48.726;9.102;2022-08-05T03:40:23;22.00;99.90
15698;DHT22;7949;48.726;9.102;2022-08-05T03:42:51;22.00;99.90
15698;DHT22;7949;48.726;9.102;2022-08-05T03:45:18;21.80;99.90
15698;DHT22;7949;48.726;9.102;2022-08-05T03:47:45;21.70;99.90
15698;DHT22;7949;48.726;9.102;2022-08-05T03:50:12;21.60;99.90
15698;DHT22;7949;48.726;9.102;2022-08-05T03:52:47;21.50;99.90
15698;DHT22;7949;48.726;9.102;2022-08-05T03:55:19;21.30;99.90
15698;DHT22;7949;48.726;9.102;2022-08-05T03:57:48;21.30;99.90
15698;DHT22;7949;48.726;9.102;2022-08-05T04:00:18;21.30;99.90
15698;DHT22;7949;48.726;9.102;2022-08-05T04:02:52;21.20;99.90
15698;DHT22;7949;48.726;9.102;2022-08-05T04:05:21;21.20;99.90
15698;DHT22;7949;48.726;9.102;2022-08-05T04:07:49;21.30;99.90
15698;DHT22;7949;48.726;9.102;2022-08-05T04:10:18;21.30;99.90
15698;DHT22;7949;48.726;9.102;2022-08-05T04:12:45;21.30;99.90
15698;DHT22;7949;48.726;9.102;2022-08-05T04:15:12;21.20;99.90
15698;DHT22;7949;48.726;9.102;2022-08-05T04:17:39;21.00;99.90
15698;DHT22;7949;48.726;9.102;2022-08-05T04:20:09;20.90;99.90
15698;DHT22;7949;48.726;9.102;2022-08-05T04:22:42;20.80;99.90
15698;DHT22;7949;48.726;9.102;2022-08-05T04:25:09;20.80;99.90
15698;DHT22;7949;48.726;9.102;2022-08-05T04:27:37;20.80;99.90
15698;DHT22;7949;48.726;9.102;2022-08-05T04:30:05;20.80;99.90
15698;DHT22;7949;48.726;9.102;2022-08-05T04:32:32;20.90;99.90
15698;DHT22;7949;48.726;9.102;2022-08-05T04:34:59;21.00;99.90
15698;DHT22;7949;48.726;9.102;2022-08-05T04:37:26;21.00;99.90
15698;DHT22;7949;48.726;9.102;2022-08-05T04:39:53;21.00;99.90
15698;DHT22;7949;48.726;9.102;2022-08-05T04:42:21;21.00;99.90
15698;DHT22;7949;48.726;9.102;2022-08-05T04:44:49;21.00;99.90
15698;DHT22;7949;48.726;9.102;2022-08-05T04:47:16;21.00;99.90
15698;DHT22;7949;48.726;9.102;2022-08-05T04:49:43;21.00;99.90
15698;DHT22;7949;48.726;9.102;2022-08-05T04:52:09;20.90;99.90
15698;DHT22;7949;48.726;9.102;2022-08-05T04:54:36;20.80;99.90
15698;DHT22;7949;48.726;9.102;2022-08-05T04:57:03;20.90;99.90
15698;DHT22;7949;48.726;9.102;2022-08-05T04:59:30;20.90;99.90
15698;DHT22;7949;48.726;9.102;2022-08-05T05:01:58;21.00;99.90
15698;DHT22;7949;48.726;9.102;2022-08-05T05:04:25;20.90;99.90
15698;DHT22;7949;48.726;9.102;2022-08-05T05:06:52;21.00;99.90
15698;DHT22;7949;48.726;9.102;2022-08-05T05:09:19;21.10;99.90
15698;DHT22;7949;48.726;9.102;2022-08-05T05:11:46;21.20;99.90
15698;DHT22;7949;48.726;9.102;2022-08-05T05:14:12;21.30;99.90
15698;DHT22;7949;48.726;9.102;2022-08-05T05:16:39;21.50;99.90
15698;DHT22;7949;48.726;9.102;2022-08-05T05:19:07;21.60;99.90
15698;DHT22;7949;48.726;9.102;2022-08-05T05:21:34;21.70;99.90
15698;DHT22;7949;48.726;9.102;2022-08-05T05:24:01;21.90;99.90
15698;DHT22;7949;48.726;9.102;2022-08-05T05:26:28;22.10;99.90
15698;DHT22;7949;48.726;9.102;2022-08-05T05:28:55;22.20;99.90
15698;DHT22;7949;48.726;9.102;2022-08-05T05:31:22;22.40;99.90
15698;DHT22;7949;48.726;9.102;2022-08-05T05:33:48;22.60;99.90
15698;DHT22;7949;48.726;9.102;2022-08-05T05:36:17;22.70;99.90
15698;DHT22;7949;48.726;9.102;2022-08-05T05:38:43;22.80;99.90
15698;DHT22;7949;48.726;9.102;2022-08-05T05:41:10;22.90;99.90
15698;DHT22;7949;48.726;9.102;2022-08-05T05:43:37;22.90;99.90
15698;DHT22;7949;48.726;9.102;2022-08-05T05:46:04;23.00;99.90
15698;DHT22;7949;48.726;9.102;2022-08-05T05:48:31;23.00;99.90
15698;DHT22;7949;48.726;9.102;2022-08-05T05:50:58;23.00;99.90
15698;DHT22;7949;48.726;9.102;2022-08-05T05:53:26;23.10;99.90
15698;DHT22;7949;48.726;9.102;2022-08-05T05:55:54;23.20;99.90
15698;DHT22;7949;48.726;9.102;2022-08-05T05:58:21;23.20;99.90
15698;DHT22;7949;48.726;9.102;2022-08-05T06:00:48;23.30;99.90
15698;DHT22;7949;48.726;9.102;2022-08-05T06:03:15;23.30;99.90
15698;DHT22;7949;48.726;9.102;2022-08-05T06:05:42;23.40;99.90
15698;DHT22;7949;48.726;9.102;2022-08-05T06:08:09;23.50;99.90
15698;DHT22;7949;48.726;9.102;2022-08-05T06:10:37;23.50;99.90
15698;DHT22;7949;48.726;9.102;2022-08-05T06:13:04;23.50;99.90
15698;DHT22;7949;48.726;9.102;2022-08-05T06:15:31;23.60;99.90
15698;DHT22;7949;48.726;9.102;2022-08-05T06:17:58;23.70;99.90
15698;DHT22;7949;48.726;9.102;2022-08-05T06:20:25;23.70;99.90
15698;DHT22;7949;48.726;9.102;2022-08-05T06:22:52;23.70;99.90
15698;DHT22;7949;48.726;9.102;2022-08-05T06:25:18;23.70;99.90
15698;DHT22;7949;48.726;9.102;2022-08-05T06:27:47;23.70;99.90
15698;DHT22;7949;48.726;9.102;2022-08-05T06:30:14;23.80;99.90
15698;DHT22;7949;48.726;9.102;2022-08-05T06:32:52;23.80;99.90
15698;DHT22;7949;48.726;9.102;2022-08-05T06:35:19;23.70;99.90
15698;DHT22;7949;48.726;9.102;2022-08-05T06:37:46;23.80;99.90
15698;DHT22;7949;48.726;9.102;2022-08-05T06:40:13;23.90;99.90
15698;DHT22;7949;48.726;9.102;2022-08-05T06:42:40;24.00;99.90
15698;DHT22;7949;48.726;9.102;2022-08-05T06:45:15;24.00;99.90
15698;DHT22;7949;48.726;9.102;2022-08-05T06:47:42;24.10;99.90
15698;DHT22;7949;48.726;9.102;2022-08-05T06:50:09;24.10;99.90
15698;DHT22;7949;48.726;9.102;2022-08-05T06:52:36;24.10;99.90
15698;DHT22;7949;48.726;9.102;2022-08-05T06:55:03;24.10;99.90
15698;DHT22;7949;48.726;9.102;2022-08-05T06:57:33;24.10;99.90
15698;DHT22;7949;48.726;9.102;2022-08-05T07:00:00;24.10;99.90
15698;DHT22;7949;48.726;9.102;2022-08-05T07:02:29;24.10;99.90
15698;DHT22;7949;48.726;9.102;2022-08-05T07:04:56;24.20;99.90
15698;DHT22;7949;48.726;9.102;2022-08-05T07:07:23;24.30;99.90
15698;DHT22;7949;48.726;9.102;2022-08-05T07:09:50;24.30;99.90
15698;DHT22;7949;48.726;9.102;2022-08-05T07:12:16;24.20;99.90
15698;DHT22;7949;48.726;9.102;2022-08-05T07:14:57;24.30;99.90
15698;DHT22;7949;48.726;9.102;2022-08-05T07:17:43;24.40;99.90
15698;DHT22;7949;48.726;9.102;2022-08-05T07:20:10;24.50;99.90
15698;DHT22;7949;48.726;9.102;2022-08-05T07:22:45;24.60;99.90
15698;DHT22;7949;48.726;9.102;2022-08-05T07:25:12;24.60;99.90
15698;DHT22;7949;48.726;9.102;2022-08-05T07:27:38;24.70;99.90
15698;DHT22;7949;48.726;9.102;2022-08-05T07:30:07;24.80;99.90
15698;DHT22;7949;48.726;9.102;2022-08-05T07:32:34;24.80;99.90
15698;DHT22;7949;48.726;9.102;2022-08-05T07:35:06;24.80;99.90
15698;DHT22;7949;48.726;9.102;2022-08-05T07:37:33;24.80;99.90
15698;DHT22;7949;48.726;9.102;2022-08-05T07:40:00;24.90;99.90
15698;DHT22;7949;48.726;9.102;2022-08-05T07:42:33;25.00;99.90
15698;DHT22;7949;48.726;9.102;2022-08-05T07:45:00;25.10;99.90
15698;DHT22;7949;48.726;9.102;2022-08-05T07:47:27;25.20;99.90
15698;DHT22;7949;48.726;9.102;2022-08-05T07:49:54;25.30;99.90
15698;DHT22;7949;48.726;9.102;2022-08-05T07:52:23;25.20;99.90
15698;DHT22;7949;48.726;9.102;2022-08-05T07:54:50;25.30;99.90
15698;DHT22;7949;48.726;9.102;2022-08-05T07:57:17;25.40;99.90
15698;DHT22;7949;48.726;9.102;2022-08-05T07:59:44;25.30;99.90
15698;DHT22;7949;48.726;9.102;2022-08-05T08:02:11;25.30;99.90
15698;DHT22;7949;48.726;9.102;2022-08-05T08:04:40;25.50;99.90
15698;DHT22;7949;48.726;9.102;2022-08-05T08:07:07;25.50;99.90
15698;DHT22;7949;48.726;9.102;2022-08-05T08:09:35;25.30;99.90
15698;DHT22;7949;48.726;9.102;2022-08-05T08:12:03;25.20;99.90
15698;DHT22;7949;48.726;9.102;2022-08-05T08:14:30;25.30;99.90
15698;DHT22;7949;48.726;9.102;2022-08-05T08:16:57;25.20;99.90
15698;DHT22;7949;48.726;9.102;2022-08-05T08:19:23;25.20;99.90
15698;DHT22;7949;48.726;9.102;2022-08-05T08:21:50;25.20;99.90
15698;DHT22;7949;48.726;9.102;2022-08-05T08:24:17;25.30;99.90
15698;DHT22;7949;48.726;9.102;2022-08-05T08:26:46;25.40;99.90
15698;DHT22;7949;48.726;9.102;2022-08-05T08:29:15;25.50;99.90
15698;DHT22;7949;48.726;9.102;2022-08-05T08:31:42;25.60;99.90
15698;DHT22;7949;48.726;9.102;2022-08-05T08:34:09;25.70;99.90
15698;DHT22;7949;48.726;9.102;2022-08-05T08:36:36;25.70;99.90
15698;DHT22;7949;48.726;9.102;2022-08-05T08:39:03;25.80;99.90
15698;DHT22;7949;48.726;9.102;2022-08-05T08:41:33;25.90;99.90
15698;DHT22;7949;48.726;9.102;2022-08-05T08:44:02;25.90;99.90
15698;DHT22;7949;48.726;9.102;2022-08-05T08:46:31;26.00;99.90
15698;DHT22;7949;48.726;9.102;2022-08-05T08:48:58;26.00;99.90
15698;DHT22;7949;48.726;9.102;2022-08-05T08:51:26;26.10;99.90
15698;DHT22;7949;48.726;9.102;2022-08-05T08:53:57;26.10;99.90
15698;DHT22;7949;48.726;9.102;2022-08-05T08:56:24;26.10;99.90
15698;DHT22;7949;48.726;9.102;2022-08-05T08:58:51;26.10;99.90
15698;DHT22;7949;48.726;9.102;2022-08-05T09:01:20;26.30;99.90
15698;DHT22;7949;48.726;9.102;2022-08-05T09:03:48;26.30;99.90
15698;DHT22;7949;48.726;9.102;2022-08-05T09:06:16;26.30;99.90
15698;DHT22;7949;48.726;9.102;2022-08-05T09:08:43;26.30;99.90
15698;DHT22;7949;48.726;9.102;2022-08-05T09:11:10;26.30;99.90
15698;DHT22;7949;48.726;9.102;2022-08-05T09:13:39;26.50;99.90
15698;DHT22;7949;48.726;9.102;2022-08-05T09:16:07;26.40;99.90
15698;DHT22;7949;48.726;9.102;2022-08-05T09:18:37;26.40;99.90
15698;DHT22;7949;48.726;9.102;2022-08-05T09:21:04;26.30;99.90
15698;DHT22;7949;48.726;9.102;2022-08-05T09:23:31;26.40;99.90
15698;DHT22;7949;48.726;9.102;2022-08-05T09:26:09;26.50;99.90
15698;DHT22;7949;48.726;9.102;2022-08-05T09:28:37;26.60;99.90
15698;DHT22;7949;48.726;9.102;2022-08-05T09:31:09;26.80;99.90
15698;DHT22;7949;48.726;9.102;2022-08-05T09:33:51;27.20;99.90
15698;DHT22;7949;48.726;9.102;2022-08-05T09:36:18;27.10;99.90
15698;DHT22;7949;48.726;9.102;2022-08-05T09:38:55;27.10;99.90
15698;DHT22;7949;48.726;9.102;2022-08-05T09:41:22;27.10;99.90
15698;DHT22;7949;48.726;9.102;2022-08-05T09:43:50;27.20;99.90
15698;DHT22;7949;48.726;9.102;2022-08-05T09:46:25;27.40;99.90
15698;DHT22;7949;48.726;9.102;2022-08-05T09:48:55;27.70;99.90
15698;DHT22;7949;48.726;9.102;2022-08-05T09:51:33;27.90;99.90
15698;DHT22;7949;48.726;9.102;2022-08-05T09:54:03;28.00;99.90
15698;DHT22;7949;48.726;9.102;2022-08-05T09:56:34;28.00;99.90
15698;DHT22;7949;48.726;9.102;2022-08-05T09:59:04;28.10;99.90
15698;DHT22;7949;48.726;9.102;2022-08-05T10:01:32;28.10;99.90
15698;DHT22;7949;48.726;9.102;2022-08-05T10:04:04;27.90;99.90
15698;DHT22;7949;48.726;9.102;2022-08-05T10:06:33;27.90;99.90
15698;DHT22;7949;48.726;9.102;2022-08-05T10:09:10;28.40;99.90
15698;DHT22;7949;48.726;9.102;2022-08-05T10:11:43;28.50;99.90
15698;DHT22;7949;48.726;9.102;2022-08-05T10:14:22;28.50;99.90
15698;DHT22;7949;48.726;9.102;2022-08-05T10:16:49;28.70;99.90
15698;DHT22;7949;48.726;9.102;2022-08-05T10:19:18;28.90;99.90
15698;DHT22;7949;48.726;9.102;2022-08-05T10:21:45;28.80;99.90
15698;DHT22;7949;48.726;9.102;2022-08-05T10:24:14;28.80;99.90
15698;DHT22;7949;48.726;9.102;2022-08-05T10:26:43;29.00;99.90
15698;DHT22;7949;48.726;9.102;2022-08-05T10:29:10;29.10;99.90
15698;DHT22;7949;48.726;9.102;2022-08-05T10:31:37;29.30;99.90
15698;DHT22;7949;48.726;9.102;2022-08-05T10:34:05;29.50;99.90
15698;DHT22;7949;48.726;9.102;2022-08-05T10:36:35;29.70;99.90
15698;DHT22;7949;48.726;9.102;2022-08-05T10:39:08;29.90;99.90
15698;DHT22;7949;48.726;9.102;2022-08-05T10:41:42;30.10;99.90
15698;DHT22;7949;48.726;9.102;2022-08-05T10:44:15;30.10;99.90
15698;DHT22;7949;48.726;9.102;2022-08-05T10:46:45;30.30;99.90
15698;DHT22;7949;48.726;9.102;2022-08-05T10:49:13;30.30;99.60
15698;DHT22;7949;48.726;9.102;2022-08-05T10:51:46;29.90;99.70
15698;DHT22;7949;48.726;9.102;2022-08-05T10:54:14;29.70;99.80
15698;DHT22;7949;48.726;9.102;2022-08-05T10:56:46;29.90;99.50
15698;DHT22;7949;48.726;9.102;2022-08-05T10:59:18;30.20;99.90
15698;DHT22;7949;48.726;9.102;2022-08-05T11:01:45;30.50;99.90
15698;DHT22;7949;48.726;9.102;2022-08-05T11:04:13;30.70;99.70
15698;DHT22;7949;48.726;9.102;2022-08-05T11:07:05;30.70;99.50
15698;DHT22;7949;48.726;9.102;2022-08-05T11:09:37;30.60;99.90
15698;DHT22;7949;48.726;9.102;2022-08-05T11:15:08;30.90;99.10
15698;DHT22;7949;48.726;9.102;2022-08-05T11:17:42;31.20;99.40
15698;DHT22;7949;48.726;9.102;2022-08-05T11:20:30;31.50;99.00
15698;DHT22;7949;48.726;9.102;2022-08-05T11:23:00;31.50;98.50
15698;DHT22;7949;48.726;9.102;2022-08-05T11:25:59;31.60;99.40
15698;DHT22;7949;48.726;9.102;2022-08-05T11:28:44;31.80;98.60
15698;DHT22;7949;48.726;9.102;2022-08-05T11:31:24;31.10;99.40
15698;DHT22;7949;48.726;9.102;2022-08-05T11:34:04;30.80;99.30
15698;DHT22;7949;48.726;9.102;2022-08-05T11:36:45;30.50;99.50
15698;DHT22;7949;48.726;9.102;2022-08-05T11:39:16;30.20;99.40
15698;DHT22;7949;48.726;9.102;2022-08-05T11:41:50;30.00;99.40
15698;DHT22;7949;48.726;9.102;2022-08-05T11:44:19;29.80;99.90
15698;DHT22;7949;48.726;9.102;2022-08-05T11:46:48;30.00;99.90
15698;DHT22;7949;48.726;9.102;2022-08-05T11:49:17;30.60;99.60
15698;DHT22;7949;48.726;9.102;2022-08-05T11:51:45;31.30;99.40
15698;DHT22;7949;48.726;9.102;2022-08-05T11:54:20;31.60;99.30
15698;DHT22;7949;48.726;9.102;2022-08-05T11:56:50;32.20;99.60
15698;DHT22;7949;48.726;9.102;2022-08-05T11:59:20;32.20;98.50
15698;DHT22;7949;48.726;9.102;2022-08-05T12:01:58;32.50;99.20
15698;DHT22;7949;48.726;9.102;2022-08-05T12:04:27;31.90;99.70
15698;DHT22;7949;48.726;9.102;2022-08-05T12:06:58;31.50;98.40
15698;DHT22;7949;48.726;9.102;2022-08-05T12:09:28;31.50;97.70
15698;DHT22;7949;48.726;9.102;2022-08-05T12:11:55;31.40;98.50
15698;DHT22;7949;48.726;9.102;2022-08-05T12:14:22;31.70;98.10
15698;DHT22;7949;48.726;9.102;2022-08-05T12:16:49;32.00;98.30
15698;DHT22;7949;48.726;9.102;2022-08-05T12:19:17;32.40;98.60
15698;DHT22;7949;48.726;9.102;2022-08-05T12:21:48;32.70;98.10
15698;DHT22;7949;48.726;9.102;2022-08-05T12:24:17;32.80;96.90
15698;DHT22;7949;48.726;9.102;2022-08-05T12:26:47;33.10;96.70
15698;DHT22;7949;48.726;9.102;2022-08-05T12:29:16;33.10;96.50
15698;DHT22;7949;48.726;9.102;2022-08-05T12:31:45;32.70;96.30
15698;DHT22;7949;48.726;9.102;2022-08-05T12:34:13;32.50;96.10
15698;DHT22;7949;48.726;9.102;2022-08-05T12:36:41;32.50;96.60
15698;DHT22;7949;48.726;9.102;2022-08-05T12:39:08;32.30;96.80
15698;DHT22;7949;48.726;9.102;2022-08-05T12:41:38;32.00;96.80
15698;DHT22;7949;48.726;9.102;2022-08-05T12:44:09;31.80;97.00
15698;DHT22;7949;48.726;9.102;2022-08-05T12:46:39;31.90;96.70
15698;DHT22;7949;48.726;9.102;2022-08-05T12:49:07;31.70;96.30
15698;DHT22;7949;48.726;9.102;2022-08-05T12:51:45;31.60;95.80
15698;DHT22;7949;48.726;9.102;2022-08-05T12:54:18;31.50;95.80
15698;DHT22;7949;48.726;9.102;2022-08-05T12:56:48;31.60;96.10
15698;DHT22;7949;48.726;9.102;2022-08-05T12:59:18;31.60;97.80
15698;DHT22;7949;48.726;9.102;2022-08-05T13:01:54;31.60;96.20
15698;DHT22;7949;48.726;9.102;2022-08-05T13:04:25;31.80;96.40
15698;DHT22;7949;48.726;9.102;2022-08-05T13:06:52;32.30;95.70
15698;DHT22;7949;48.726;9.102;2022-08-05T13:09:22;32.90;96.60
15698;DHT22;7949;48.726;9.102;2022-08-05T13:11:49;33.60;96.40
15698;DHT22;7949;48.726;9.102;2022-08-05T13:14:22;33.60;96.00
15698;DHT22;7949;48.726;9.102;2022-08-05T13:16:51;33.40;95.00
15698;DHT22;7949;48.726;9.102;2022-08-05T13:19:21;32.60;95.30
15698;DHT22;7949;48.726;9.102;2022-08-05T13:21:48;32.10;95.70
15698;DHT22;7949;48.726;9.102;2022-08-05T13:24:16;31.70;95.90
15698;DHT22;7949;48.726;9.102;2022-08-05T13:26:44;31.50;96.20
15698;DHT22;7949;48.726;9.102;2022-08-05T13:29:11;31.30;96.20
15698;DHT22;7949;48.726;9.102;2022-08-05T13:31:39;31.90;96.30
15698;DHT22;7949;48.726;9.102;2022-08-05T13:34:06;32.40;96.30
15698;DHT22;7949;48.726;9.102;2022-08-05T13:36:34;32.00;96.00
15698;DHT22;7949;48.726;9.102;2022-08-05T13:39:01;31.80;95.70
15698;DHT22;7949;48.726;9.102;2022-08-05T13:41:28;31.50;96.80
15698;DHT22;7949;48.726;9.102;2022-08-05T13:43:55;31.60;96.90
15698;DHT22;7949;48.726;9.102;2022-08-05T13:46:22;31.40;96.80
15698;DHT22;7949;48.726;9.102;2022-08-05T13:48:51;31.10;97.40
15698;DHT22;7949;48.726;9.102;2022-08-05T13:51:26;30.80;97.30
15698;DHT22;7949;48.726;9.102;2022-08-05T13:53:53;30.70;98.00
15698;DHT22;7949;48.726;9.102;2022-08-05T13:56:20;31.50;97.90
15698;DHT22;7949;48.726;9.102;2022-08-05T13:58:47;31.80;96.70
15698;DHT22;7949;48.726;9.102;2022-08-05T14:01:14;31.90;96.60
15698;DHT22;7949;48.726;9.102;2022-08-05T14:03:41;32.20;97.30
15698;DHT22;7949;48.726;9.102;2022-08-05T14:06:09;32.90;95.90
15698;DHT22;7949;48.726;9.102;2022-08-05T14:08:35;32.90;96.00
15698;DHT22;7949;48.726;9.102;2022-08-05T14:11:02;32.40;95.60
15698;DHT22;7949;48.726;9.102;2022-08-05T14:13:29;32.00;96.20
15698;DHT22;7949;48.726;9.102;2022-08-05T14:15:56;31.10;96.30
15698;DHT22;7949;48.726;9.102;2022-08-05T14:18:23;30.50;96.70
15698;DHT22;7949;48.726;9.102;2022-08-05T14:20:50;29.90;97.00
15698;DHT22;7949;48.726;9.102;2022-08-05T14:23:18;29.70;97.40
15698;DHT22;7949;48.726;9.102;2022-08-05T14:25:45;29.60;97.60
15698;DHT22;7949;48.726;9.102;2022-08-05T14:28:12;29.60;98.20
15698;DHT22;7949;48.726;9.102;2022-08-05T14:30:39;29.50;98.00
15698;DHT22;7949;48.726;9.102;2022-08-05T14:33:05;29.40;98.10
15698;DHT22;7949;48.726;9.102;2022-08-05T14:35:34;29.20;98.30
15698;DHT22;7949;48.726;9.102;2022-08-05T14:38:01;29.10;98.50
15698;DHT22;7949;48.726;9.102;2022-08-05T14:40:29;29.00;98.70
15698;DHT22;7949;48.726;9.102;2022-08-05T14:42:56;29.00;98.70
15698;DHT22;7949;48.726;9.102;2022-08-05T14:45:23;28.90;99.30
15698;DHT22;7949;48.726;9.102;2022-08-05T14:47:50;28.90;99.20
15698;DHT22;7949;48.726;9.102;2022-08-05T14:50:17;28.80;99.10
15698;DHT22;7949;48.726;9.102;2022-08-05T14:52:44;28.60;99.30
15698;DHT22;7949;48.726;9.102;2022-08-05T14:55:11;28.50;99.40
15698;DHT22;7949;48.726;9.102;2022-08-05T14:57:39;28.40;99.40
15698;DHT22;7949;48.726;9.102;2022-08-05T15:00:07;28.40;99.40
15698;DHT22;7949;48.726;9.102;2022-08-05T15:02:34;28.40;99.70
15698;DHT22;7949;48.726;9.102;2022-08-05T15:05:01;28.30;99.90
15698;DHT22;7949;48.726;9.102;2022-08-05T15:07:28;28.10;99.90
15698;DHT22;7949;48.726;9.102;2022-08-05T15:09:54;28.00;99.90
15698;DHT22;7949;48.726;9.102;2022-08-05T15:12:21;27.40;99.90
15698;DHT22;7949;48.726;9.102;2022-08-05T15:14:49;24.90;99.90
15698;DHT22;7949;48.726;9.102;2022-08-05T15:17:17;22.60;99.90
15698;DHT22;7949;48.726;9.102;2022-08-05T15:19:44;21.60;99.90
15698;DHT22;7949;48.726;9.102;2022-08-05T15:22:11;21.20;99.90
15698;DHT22;7949;48.726;9.102;2022-08-05T15:24:40;21.30;99.90
15698;DHT22;7949;48.726;9.102;2022-08-05T15:27:07;21.30;99.90
15698;DHT22;7949;48.726;9.102;2022-08-05T15:29:34;21.60;99.90
15698;DHT22;7949;48.726;9.102;2022-08-05T15:32:03;21.90;99.90
15698;DHT22;7949;48.726;9.102;2022-08-05T15:34:29;22.00;99.90
15698;DHT22;7949;48.726;9.102;2022-08-05T15:36:57;22.20;99.90
15698;DHT22;7949;48.726;9.102;2022-08-05T15:39:24;22.20;99.90
15698;DHT22;7949;48.726;9.102;2022-08-05T15:41:51;22.30;99.90
15698;DHT22;7949;48.726;9.102;2022-08-05T15:44:18;22.30;99.90
15698;DHT22;7949;48.726;9.102;2022-08-05T15:46:45;22.40;99.90
15698;DHT22;7949;48.726;9.102;2022-08-05T15:49:13;22.50;99.90
15698;DHT22;7949;48.726;9.102;2022-08-05T15:51:40;22.70;99.90
15698;DHT22;7949;48.726;9.102;2022-08-05T15:54:07;22.70;99.90
15698;DHT22;7949;48.726;9.102;2022-08-05T15:56:34;22.90;99.90
15698;DHT22;7949;48.726;9.102;2022-08-05T15:59:01;22.90;99.90